Time;durP1;ratioP1;P1;durP2;ratioP2;P2;SDS_P1;SDS_P2;PMS_P1;PMS_P2;Temp;Humidity;BMP_temperature;BMP_pressure;BME280_temperature;BME280_humidity;BME280_pressure;Samples;Min_cycle;Max_cycle;Signal;HPM_P1;HPM_P2
2021/05/07 00:00:32;;;;;;;;;;;;;;;21.63;29.00;97724.06;4962231;29;620;-77
2021/05/07 00:02:57;;;;;;;;;;;;;;;21.67;29.28;97730.44;4962080;29;840;-77
2021/05/07 00:05:23;;;;;;;;;;;;;;;21.69;29.29;97725.09;4961728;29;867;-77
2021/05/07 00:07:48;;;;;;;;;;;;;;;21.59;29.28;97731.88;4961847;29;1031;-77
2021/05/07 00:10:14;;;;;;;;;;;;;;;21.65;29.15;97735.72;4962079;29;685;-77
2021/05/07 00:12:40;;;;;;;;;;;;;;;21.61;29.19;97732.25;4945016;29;964;-77
2021/05/07 00:15:06;;;;;;;;;;;;;;;21.59;29.33;97729.03;4961886;28;863;-77
2021/05/07 00:17:31;;;;;;;;;;;;;;;21.50;29.46;97732.56;4965638;29;1967;-76
2021/05/07 00:19:57;;;;;;;;;;;;;;;21.61;29.15;97728.63;4949083;29;1133;-77
2021/05/07 00:22:22;;;;;;;;;;;;;;;21.59;29.18;97712.06;4949073;29;1013;-77
2021/05/07 00:24:48;;;;;;;;;;;;;;;21.53;29.33;97716.69;4965879;29;654;-76
2021/05/07 00:27:16;;;;;;;;;;;;;;;21.59;29.22;97718.50;4966048;29;607;-76
2021/05/07 00:29:42;;;;;;;;;;;;;;;21.62;29.27;97722.50;4965985;29;614;-76
2021/05/07 00:32:07;;;;;;;;;;;;;;;21.65;29.43;97720.78;4965756;29;878;-76
2021/05/07 00:34:33;;;;;;;;;;;;;;;21.58;29.27;97721.81;4965571;29;836;-76
2021/05/07 00:37:01;;;;;;;;;;;;;;;21.64;29.09;97731.31;4965462;29;1899;-76
2021/05/07 00:39:27;;;;;;;;;;;;;;;21.69;29.26;97730.75;4965512;29;989;-76
2021/05/07 00:41:52;;;;;;;;;;;;;;;21.62;29.13;97733.81;4948925;29;1344;-76
2021/05/07 00:44:18;;;;;;;;;;;;;;;21.60;29.41;97744.78;4948737;29;1221;-76
2021/05/07 00:46:44;;;;;;;;;;;;;;;21.59;29.29;97758.16;4948377;29;1298;-76
2021/05/07 00:49:10;;;;;;;;;;;;;;;21.61;29.15;97754.88;4948695;29;899;-76
2021/05/07 00:51:35;;;;;;;;;;;;;;;21.54;29.35;97749.44;4948764;29;1141;-76
2021/05/07 00:54:26;;;;;;;;;;;;;;;21.58;29.11;97747.28;4965372;29;645;-76
2021/05/07 00:57:02;;;;;;;;;;;;;;;21.55;29.12;97751.00;4965229;29;1906;-76
2021/05/07 00:59:28;;;;;;;;;;;;;;;21.59;29.12;97752.50;4948685;29;1144;-76
2021/05/07 01:01:54;;;;;;;;;;;;;;;21.58;29.15;97752.94;4965063;29;1053;-77
2021/05/07 01:04:19;;;;;;;;;;;;;;;21.57;29.02;97755.00;4964971;29;884;-76
2021/05/07 01:06:45;;;;;;;;;;;;;;;21.70;28.95;97746.50;4964940;29;804;-76
2021/05/07 01:09:16;;;;;;;;;;;;;;;21.58;29.06;97738.78;4965196;29;787;-76
2021/05/07 01:11:48;;;;;;;;;;;;;;;21.64;28.91;97742.66;4964927;29;603;-76
2021/05/07 01:14:13;;;;;;;;;;;;;;;21.61;28.94;97737.91;4948516;29;2030;-76
2021/05/07 01:16:39;;;;;;;;;;;;;;;21.45;29.46;97735.13;4964866;29;963;-76
2021/05/07 01:19:05;;;;;;;;;;;;;;;21.63;28.99;97723.28;4947521;29;1906;-76
2021/05/07 01:21:32;;;;;;;;;;;;;;;21.66;29.16;97733.69;4964818;29;1027;-76
2021/05/07 01:24:07;;;;;;;;;;;;;;;21.62;28.98;97728.16;4948195;29;623;-76
2021/05/07 01:26:39;;;;;;;;;;;;;;;21.53;29.17;97723.16;4947935;28;643;-77
2021/05/07 01:29:10;;;;;;;;;;;;;;;21.69;29.02;97722.25;4947168;29;1140;-76
2021/05/07 01:31:36;;;;;;;;;;;;;;;21.66;29.00;97728.84;4947871;29;1209;-77
2021/05/07 01:34:02;;;;;;;;;;;;;;;21.58;29.05;97733.13;4947956;29;1118;-77
2021/05/07 01:36:27;;;;;;;;;;;;;;;21.65;29.17;97732.91;4964488;29;969;-77
2021/05/07 01:38:53;;;;;;;;;;;;;;;21.68;29.10;97725.56;4947606;29;1968;-77
2021/05/07 01:41:18;;;;;;;;;;;;;;;21.78;29.14;97725.22;4964811;29;687;-77
2021/05/07 01:43:44;;;;;;;;;;;;;;;21.75;28.76;97725.31;4947912;29;1240;-77
2021/05/07 01:46:09;;;;;;;;;;;;;;;21.77;28.68;97728.50;4947520;29;1091;-77
2021/05/07 01:48:35;;;;;;;;;;;;;;;21.72;28.86;97726.25;4964129;29;902;-78
2021/05/07 01:51:00;;;;;;;;;;;;;;;21.58;29.08;97727.47;4964239;29;987;-77
2021/05/07 01:53:28;;;;;;;;;;;;;;;21.67;28.88;97724.75;4932319;29;1339;-77
2021/05/07 01:55:55;;;;;;;;;;;;;;;21.63;29.07;97724.06;4947726;29;1161;-77
2021/05/07 01:58:33;;;;;;;;;;;;;;;21.64;29.27;97719.19;4964004;29;1903;-77
2021/05/07 02:00:58;;;;;;;;;;;;;;;21.53;29.15;97717.50;4947689;29;1133;-77
2021/05/07 02:03:25;;;;;;;;;;;;;;;21.59;29.33;97715.69;4947240;29;1205;-77
2021/05/07 02:05:55;;;;;;;;;;;;;;;21.61;29.19;97720.13;4963954;29;935;-77
2021/05/07 02:08:21;;;;;;;;;;;;;;;21.59;29.28;97712.84;4947148;29;1208;-76
2021/05/07 02:10:47;;;;;;;;;;;;;;;21.60;29.41;97707.97;4964008;29;662;-77
2021/05/07 02:13:14;;;;;;;;;;;;;;;21.65;29.05;97713.06;4963835;29;627;-76
2021/05/07 02:15:44;;;;;;;;;;;;;;;19.91;29.08;97433.50;4963526;29;1077;-76
2021/05/07 02:18:15;;;;;;;;;;;;;;;21.67;29.05;97707.78;4946903;29;1915;-76
2021/05/07 02:20:45;;;;;;;;;;;;;;;21.63;29.10;97726.91;4947083;29;1149;-76
2021/05/07 02:23:11;;;;;;;;;;;;;;;21.69;29.26;97722.25;4963630;29;662;-77
2021/05/07 02:25:37;;;;;;;;;;;;;;;21.67;29.09;97719.09;4963620;29;653;-77
2021/05/07 02:28:06;;;;;;;;;;;;;;;21.67;29.32;97723.97;4947087;29;954;-77
2021/05/07 02:30:33;;;;;;;;;;;;;;;21.65;29.18;97717.94;4946930;29;1257;-76
2021/05/07 02:33:04;;;;;;;;;;;;;;;21.64;29.34;97724.88;4963417;29;872;-76
2021/05/07 02:35:32;;;;;;;;;;;;;;;21.58;29.55;97724.63;4947249;29;1252;-77
2021/05/07 02:37:59;;;;;;;;;;;;;;;21.49;29.44;97730.16;4930851;28;1902;-77
2021/05/07 02:40:27;;;;;;;;;;;;;;;21.60;29.17;97724.97;4946740;29;1195;-76
2021/05/07 02:43:10;;;;;;;;;;;;;;;21.58;29.11;97721.81;4963508;29;882;-77
2021/05/07 02:45:38;;;;;;;;;;;;;;;21.56;29.21;97729.97;4946736;29;1200;-77
2021/05/07 02:48:04;;;;;;;;;;;;;;;21.63;29.34;97731.78;4962913;29;860;-76
2021/05/07 02:50:29;;;;;;;;;;;;;;;21.64;29.04;97725.66;4963058;29;852;-77
2021/05/07 02:52:55;;;;;;;;;;;;;;;21.75;29.05;97720.44;4963189;29;664;-77
2021/05/07 02:55:21;;;;;;;;;;;;;;;21.78;28.79;97728.03;4963087;29;701;-77
2021/05/07 02:57:47;;;;;;;;;;;;;;;21.73;29.15;97733.47;4946475;29;1966;-76
2021/05/07 03:00:15;;;;;;;;;;;;;;;21.71;29.06;97730.28;4946370;29;1177;-77
2021/05/07 03:02:41;;;;;;;;;;;;;;;21.71;29.01;97730.28;4946163;29;890;-76
2021/05/07 03:05:07;;;;;;;;;;;;;;;21.68;29.22;97732.00;4963046;29;944;-77
2021/05/07 03:07:32;;;;;;;;;;;;;;;21.65;29.23;97738.56;4962943;29;651;-77
2021/05/07 03:09:58;;;;;;;;;;;;;;;21.68;28.95;97737.66;4962934;29;886;-77
2021/05/07 03:12:23;;;;;;;;;;;;;;;21.66;28.90;97737.34;4962771;29;659;-77
2021/05/07 03:14:48;;;;;;;;;;;;;;;21.76;28.92;97733.38;4945881;29;1392;-77
2021/05/07 03:17:15;;;;;;;;;;;;;;;21.75;28.75;97747.97;4962321;29;1898;-77
2021/05/07 03:19:41;;;;;;;;;;;;;;;21.78;28.68;97745.03;4962483;29;1007;-77
2021/05/07 03:22:06;;;;;;;;;;;;;;;21.73;28.76;97745.59;4962655;29;648;-77
2021/05/07 03:24:32;;;;;;;;;;;;;;;21.76;28.72;97736.22;4962581;29;596;-77
2021/05/07 03:27:00;;;;;;;;;;;;;;;21.72;28.88;97749.69;4962478;29;711;-77
2021/05/07 03:29:25;;;;;;;;;;;;;;;21.70;28.83;97752.16;4962155;29;920;-77
2021/05/07 03:31:51;;;;;;;;;;;;;;;21.67;29.06;97753.06;4946320;29;896;-77
2021/05/07 03:34:16;;;;;;;;;;;;;;;21.64;28.91;97742.66;4962291;29;965;-77
2021/05/07 03:36:42;;;;;;;;;;;;;;;21.77;28.71;97745.50;4962467;29;707;-77
2021/05/07 03:39:07;;;;;;;;;;;;;;;21.74;28.85;97744.34;4962172;29;1957;-77
2021/05/07 03:41:33;;;;;;;;;;;;;;;21.66;29.08;97748.66;4962348;29;567;-77
2021/05/07 03:43:58;;;;;;;;;;;;;;;21.69;28.95;97747.75;4961992;29;852;-77
2021/05/07 03:46:24;;;;;;;;;;;;;;;21.83;28.95;97735.19;4961938;29;855;-77
2021/05/07 03:48:49;;;;;;;;;;;;;;;21.83;28.88;97741.63;4962103;29;971;-77
2021/05/07 03:51:15;;;;;;;;;;;;;;;21.75;28.85;97737.44;4961776;28;587;-77
2021/05/07 03:53:40;;;;;;;;;;;;;;;21.57;29.12;97745.69;4962115;29;604;-77
2021/05/07 03:56:06;;;;;;;;;;;;;;;21.70;29.11;97752.16;4945334;29;1261;-76
2021/05/07 03:58:31;;;;;;;;;;;;;;;21.68;28.91;97743.34;4942803;29;1915;-78
2021/05/07 04:00:57;;;;;;;;;;;;;;;21.64;29.11;97747.50;4942986;29;832;-78
2021/05/07 04:03:22;;;;;;;;;;;;;;;21.73;29.24;97756.13;4942665;29;860;-79
2021/05/07 04:05:51;;;;;;;;;;;;;;;21.60;29.49;97741.94;4942676;29;940;-78
2021/05/07 04:08:22;;;;;;;;;;;;;;;21.62;29.30;97745.16;4942950;29;830;-79
2021/05/07 04:10:53;;;;;;;;;;;;;;;21.77;29.33;97743.47;4943012;29;1325;-77
2021/05/07 04:16:03;;;;;;;;;;;;;;;21.72;29.52;97737.56;4942661;29;1364;-78
2021/05/07 04:18:29;;;;;;;;;;;;;;;21.68;29.55;97743.34;4925058;29;1907;-78
2021/05/07 04:20:54;;;;;;;;;;;;;;;21.75;29.71;97736.66;4942558;29;898;-78
2021/05/07 04:23:20;;;;;;;;;;;;;;;21.72;29.29;97732.69;4942787;29;841;-78
2021/05/07 04:25:45;;;;;;;;;;;;;;;21.78;29.14;97736.53;4942676;29;672;-79
2021/05/07 04:28:11;;;;;;;;;;;;;;;21.76;29.38;97743.88;4942795;29;587;-78
2021/05/07 04:30:36;;;;;;;;;;;;;;;21.72;29.43;97749.69;4926339;29;1448;-79
2021/05/07 04:33:02;;;;;;;;;;;;;;;21.72;29.77;97743.22;4942349;29;904;-78
2021/05/07 04:35:27;;;;;;;;;;;;;;;21.68;29.76;97740.50;4926173;29;1125;-78
2021/05/07 04:37:53;;;;;;;;;;;;;;;21.76;29.43;97739.03;4942421;29;1907;-78
2021/05/07 04:40:18;;;;;;;;;;;;;;;21.79;29.59;97738.13;4942445;29;1143;-78
2021/05/07 04:42:44;;;;;;;;;;;;;;;21.91;29.57;97732.91;4942367;29;1262;-78
2021/05/07 04:45:09;;;;;;;;;;;;;;;21.79;29.64;97726.78;4942374;29;1384;-78
2021/05/07 04:47:35;;;;;;;;;;;;;;;21.70;29.61;97740.81;4925858;29;1094;-78
2021/05/07 04:50:00;;;;;;;;;;;;;;;21.75;29.55;97734.59;4925917;29;1051;-78
2021/05/07 04:52:26;;;;;;;;;;;;;;;21.72;29.57;97732.69;4942444;29;888;-78
2021/05/07 04:54:54;;;;;;;;;;;;;;;21.78;29.76;97742.22;4942501;29;683;-78
2021/05/07 04:57:22;;;;;;;;;;;;;;;22.05;28.97;97735.28;4942330;29;1985;-79
2021/05/07 04:59:47;;;;;;;;;;;;;;;21.84;29.46;97745.25;4942439;29;896;-78
2021/05/07 05:02:12;;;;;;;;;;;;;;;21.91;29.42;97750.69;4943576;29;1222;-78
2021/05/07 05:04:38;;;;;;;;;;;;;;;21.79;29.53;97749.44;4945715;29;842;-78
2021/05/07 05:07:07;;;;;;;;;;;;;;;21.92;29.49;97751.50;4945983;29;872;-78
2021/05/07 05:09:32;;;;;;;;;;;;;;;21.82;29.47;97759.09;4945957;29;631;-78
2021/05/07 05:11:58;;;;;;;;;;;;;;;21.84;29.76;97751.72;4945770;29;651;-78
2021/05/07 05:14:23;;;;;;;;;;;;;;;21.78;29.58;97764.06;4945944;29;651;-79
2021/05/07 05:16:49;;;;;;;;;;;;;;;21.79;29.65;97766.44;4945704;29;911;-79
2021/05/07 05:19:14;;;;;;;;;;;;;;;21.76;29.77;97760.88;4945431;29;1898;-79
2021/05/07 05:21:40;;;;;;;;;;;;;;;21.82;29.65;97765.56;4945736;29;924;-79
2021/05/07 05:24:06;;;;;;;;;;;;;;;21.88;29.56;97770.66;4945619;29;644;-79
2021/05/07 05:26:31;;;;;;;;;;;;;;;21.83;29.78;97755.81;4945615;29;628;-78
2021/05/07 05:28:56;;;;;;;;;;;;;;;21.83;29.52;97755.81;4945670;29;732;-78
2021/05/07 05:31:22;;;;;;;;;;;;;;;21.89;29.50;97752.41;4943774;29;1412;-78
2021/05/07 05:33:47;;;;;;;;;;;;;;;21.81;29.77;97758.31;4944769;29;1185;-78
2021/05/07 05:36:15;;;;;;;;;;;;;;;21.72;29.65;97755.34;4945368;29;975;-78
2021/05/07 05:38:44;;;;;;;;;;;;;;;21.70;29.68;97760.66;4944945;29;1883;-78
2021/05/07 05:41:09;;;;;;;;;;;;;;;21.74;29.73;97769.03;4933631;29;710;-79
2021/05/07 05:43:35;;;;;;;;;;;;;;;21.53;29.97;97770.50;4945313;29;608;-78
2021/05/07 05:46:00;;;;;;;;;;;;;;;21.93;29.27;97779.38;4944937;29;930;-78
2021/05/07 05:48:26;;;;;;;;;;;;;;;21.87;29.39;97786.84;4944083;29;861;-78
2021/05/07 05:50:52;;;;;;;;;;;;;;;21.84;29.73;97780.03;4929924;29;1442;-78
2021/05/07 05:53:17;;;;;;;;;;;;;;;21.96;29.42;97791.81;4928583;29;909;-79
2021/05/07 05:55:43;;;;;;;;;;;;;;;21.88;29.44;97785.59;4928457;29;665;-79
2021/05/07 05:58:08;;;;;;;;;;;;;;;21.89;29.54;97775.06;4944940;29;1961;-78
2021/05/07 06:00:34;;;;;;;;;;;;;;;21.81;29.66;97783.78;4944616;29;975;-78
2021/05/07 06:02:59;;;;;;;;;;;;;;;21.73;29.83;97785.25;4927827;29;970;-78
2021/05/07 06:05:25;;;;;;;;;;;;;;;21.79;29.86;97789.09;4944875;29;1011;-78
2021/05/07 06:07:50;;;;;;;;;;;;;;;21.87;29.55;97791.72;4928357;29;679;-78
2021/05/07 06:10:16;;;;;;;;;;;;;;;21.84;29.85;97797.03;4944760;29;671;-78
2021/05/07 06:12:42;;;;;;;;;;;;;;;21.79;29.81;97794.75;4928472;29;612;-78
2021/05/07 06:15:08;;;;;;;;;;;;;;;21.77;29.99;97788.78;4928205;29;973;-77
2021/05/07 06:17:34;;;;;;;;;;;;;;;21.90;29.50;97782.31;4944269;29;1899;-78
2021/05/07 06:20:03;;;;;;;;;;;;;;;22.01;29.32;97777.09;4944635;29;920;-78
2021/05/07 06:22:29;;;;;;;;;;;;;;;21.81;29.46;97772.47;4944162;29;1643;-79
2021/05/07 06:25:01;;;;;;;;;;;;;;;21.83;29.78;97772.78;4927962;29;1613;-78
2021/05/07 06:27:27;;;;;;;;;;;;;;;21.76;29.82;97773.03;4944444;29;675;-78
2021/05/07 06:29:52;;;;;;;;;;;;;;;21.71;29.77;97759.44;4923879;29;1337;-78
2021/05/07 06:32:17;;;;;;;;;;;;;;;21.60;29.75;97758.94;4943904;29;1419;-78
2021/05/07 06:34:43;;;;;;;;;;;;;;;21.69;29.62;97758.28;4944102;29;1395;-79
2021/05/07 06:37:10;;;;;;;;;;;;;;;21.59;29.66;97758.16;4940244;29;1982;-77
2021/05/07 06:39:35;;;;;;;;;;;;;;;21.62;29.93;97750.03;4927412;29;1429;-76
2021/05/07 06:42:01;;;;;;;;;;;;;;;21.64;29.65;97753.97;4944264;29;791;-77
2021/05/07 06:44:26;;;;;;;;;;;;;;;21.66;29.64;97757.16;4947556;29;1447;-78
2021/05/07 06:46:52;;;;;;;;;;;;;;;21.57;29.47;97751.38;4955084;29;1615;-79
2021/05/07 06:49:18;;;;;;;;;;;;;;;21.66;29.38;97745.00;4941774;29;1305;-78
2021/05/07 06:51:43;;;;;;;;;;;;;;;21.71;29.62;97752.94;4942403;29;1561;-78
2021/05/07 06:54:09;;;;;;;;;;;;;;;21.66;29.72;97757.16;4943731;29;1518;-78
2021/05/07 06:56:35;;;;;;;;;;;;;;;21.60;29.51;97747.63;4939975;29;1329;-78
2021/05/07 06:59:00;;;;;;;;;;;;;;;21.64;29.86;97748.31;4921031;29;1902;-76
2021/05/07 07:01:26;;;;;;;;;;;;;;;21.61;29.41;97737.13;4941875;29;1434;-78
2021/05/07 07:03:52;;;;;;;;;;;;;;;21.57;29.80;97749.31;4943176;29;1277;-78
2021/05/07 07:06:17;;;;;;;;;;;;;;;21.51;29.88;97736.97;4911597;29;1286;-78
2021/05/07 07:08:43;;;;;;;;;;;;;;;21.46;29.61;97733.91;4941561;29;1583;-78
2021/05/07 07:11:08;;;;;;;;;;;;;;;21.71;29.54;97735.97;4925386;29;1591;-78
2021/05/07 07:13:34;;;;;;;;;;;;;;;21.63;29.55;97745.94;4941758;29;1568;-79
2021/05/07 07:15:59;;;;;;;;;;;;;;;21.58;29.43;97741.63;4942479;29;1500;-78
2021/05/07 07:18:25;;;;;;;;;;;;;;;21.62;29.75;97744.34;4941057;29;1891;-78
2021/05/07 07:20:50;;;;;;;;;;;;;;;21.59;29.81;97735.50;4943602;29;826;-78
2021/05/07 07:23:16;;;;;;;;;;;;;;;21.64;29.53;97734.16;4941435;29;1343;-78
2021/05/07 07:25:41;;;;;;;;;;;;;;;21.57;29.35;97737.22;4926283;29;654;-77
2021/05/07 07:28:07;;;;;;;;;;;;;;;21.59;29.75;97731.88;4942071;29;1481;-78
2021/05/07 07:30:32;;;;;;;;;;;;;;;21.68;29.31;97732.00;4941335;29;1539;-78
2021/05/07 07:32:58;;;;;;;;;;;;;;;21.64;29.34;97736.97;4942632;29;1457;-78
2021/05/07 07:35:23;;;;;;;;;;;;;;;21.79;29.38;97721.13;4942457;29;1419;-78
2021/05/07 07:37:49;;;;;;;;;;;;;;;21.62;29.61;97733.03;4942651;29;1902;-78
2021/05/07 07:40:14;;;;;;;;;;;;;;;21.58;29.48;97727.47;4941228;29;1923;-78
2021/05/07 07:42:40;;;;;;;;;;;;;;;21.61;29.38;97715.25;4943089;29;1066;-78
2021/05/07 07:45:07;;;;;;;;;;;;;;;21.68;29.62;97723.50;4941415;29;1551;-78
2021/05/07 07:47:32;;;;;;;;;;;;;;;21.66;29.45;97708.22;4925974;29;1505;-78
2021/05/07 07:49:58;;;;;;;;;;;;;;;21.67;29.51;97707.78;4942224;29;1627;-78
2021/05/07 07:52:23;;;;;;;;;;;;;;;21.64;29.46;97716.38;4942721;29;1313;-78
2021/05/07 07:54:49;;;;;;;;;;;;;;;21.51;29.86;97711.50;4941843;29;1595;-78
2021/05/07 07:57:14;;;;;;;;;;;;;;;21.54;29.65;97721.13;4942175;29;1902;-78
2021/05/07 07:59:40;;;;;;;;;;;;;;;21.55;29.56;97717.03;4942715;29;915;-78
2021/05/07 08:02:05;;;;;;;;;;;;;;;21.67;29.55;97719.09;4941935;29;1556;-78
2021/05/07 08:04:31;;;;;;;;;;;;;;;21.57;29.49;97709.69;4926543;29;1159;-78
2021/05/07 08:06:56;;;;;;;;;;;;;;;21.69;29.32;97699.59;4941973;29;1340;-78
2021/05/07 08:09:22;;;;;;;;;;;;;;;21.55;29.46;97712.19;4942763;29;815;-77
2021/05/07 08:11:47;;;;;;;;;;;;;;;21.61;29.58;97709.59;4921910;29;1427;-78
2021/05/07 08:14:12;;;;;;;;;;;;;;;21.59;29.77;97709.22;4941510;29;1501;-78
2021/05/07 08:16:38;;;;;;;;;;;;;;;21.59;29.86;97695.06;4935170;29;1497;-78
2021/05/07 08:19:03;;;;;;;;;;;;;;;21.63;29.55;97695.75;4901887;29;1895;-78
2021/05/07 08:21:29;;;;;;;;;;;;;;;21.69;29.48;97699.59;4941818;29;1527;-78
2021/05/07 08:23:55;;;;;;;;;;;;;;;21.65;29.43;97701.75;4936837;29;1337;-78
2021/05/07 08:26:20;;;;;;;;;;;;;;;21.69;29.59;97693.94;4918298;29;1470;-78
2021/05/07 08:28:46;;;;;;;;;;;;;;;21.66;29.30;97683.53;4915823;29;1533;-78
2021/05/07 08:31:11;;;;;;;;;;;;;;;21.63;29.61;97690.09;4936013;29;1446;-78
2021/05/07 08:33:37;;;;;;;;;;;;;;;21.53;29.72;97685.56;4942328;29;1491;-77
2021/05/07 08:36:04;;;;;;;;;;;;;;;21.48;29.97;97684.09;4921420;29;1382;-78
2021/05/07 08:38:30;;;;;;;;;;;;;;;21.52;29.59;97683.97;4943035;29;1894;-78
2021/05/07 08:40:56;;;;;;;;;;;;;;;21.51;29.90;97676.75;4944165;29;1640;-77
2021/05/07 08:43:21;;;;;;;;;;;;;;;21.54;29.51;97682.28;4927433;29;1608;-79
2021/05/07 08:45:47;;;;;;;;;;;;;;;21.49;29.96;97676.38;4945336;29;1540;-78
2021/05/07 08:48:12;;;;;;;;;;;;;;;21.49;29.99;97674.34;4945325;29;1508;-78
2021/05/07 08:50:38;;;;;;;;;;;;;;;21.66;29.54;97682.72;4929485;29;1008;-78
2021/05/07 08:53:03;;;;;;;;;;;;;;;21.62;29.66;97682.84;4945886;29;1486;-78
2021/05/07 08:55:47;;;;;;;;;;;;;;;21.49;29.99;97679.22;4929454;29;949;-78
2021/05/07 08:58:17;;;;;;;;;;;;;;;21.57;29.84;97689.09;4943713;29;1910;-78
2021/05/07 09:00:42;;;;;;;;;;;;;;;21.59;29.60;97678.09;4946156;29;975;-78
2021/05/07 09:03:09;;;;;;;;;;;;;;;21.61;29.75;97681.28;4928733;29;1589;-78
2021/05/07 09:05:36;;;;;;;;;;;;;;;21.51;29.75;97676.75;4928732;29;1573;-77
2021/05/07 09:08:01;;;;;;;;;;;;;;;21.56;29.89;97673.34;4945540;29;1608;-78
2021/05/07 09:10:34;;;;;;;;;;;;;;;21.47;29.85;97670.41;4926910;29;1493;-76
2021/05/07 09:12:59;;;;;;;;;;;;;;;21.72;29.60;97667.56;4929197;29;1190;-77
2021/05/07 09:15:36;;;;;;;;;;;;;;;21.68;29.76;97666.09;4943654;29;1512;-77
2021/05/07 09:18:01;;;;;;;;;;;;;;;21.66;29.80;97672.22;4945498;29;1902;-78
2021/05/07 09:20:34;;;;;;;;;;;;;;;21.66;29.81;97677.06;4945728;29;1494;-78
2021/05/07 09:23:01;;;;;;;;;;;;;;;21.59;29.68;97666.75;4944717;29;1626;-78
2021/05/07 09:25:35;;;;;;;;;;;;;;;21.53;30.08;97662.91;4945378;29;964;-78
2021/05/07 09:28:30;;;;;;;;;;;;;;;21.51;30.00;97660.53;4944477;29;1548;-78
2021/05/07 09:31:08;;;;;;;;;;;;;;;21.70;29.57;97644.56;4928267;29;1653;-79
2021/05/07 09:33:33;;;;;;;;;;;;;;;21.58;29.94;97645.38;4928597;29;1589;-78
2021/05/07 09:35:59;;;;;;;;;;;;;;;21.69;29.46;97648.63;4928955;29;1381;-78
2021/05/07 09:38:24;;;;;;;;;;;;;;;21.68;29.35;97643.44;4943956;29;1906;-78
2021/05/07 09:40:49;;;;;;;;;;;;;;;21.65;29.84;97642.28;4925682;29;1501;-78
2021/05/07 09:43:17;;;;;;;;;;;;;;;21.55;29.71;97643.44;4945057;29;935;-77
2021/05/07 09:45:45;;;;;;;;;;;;;;;21.56;29.98;97633.72;4928187;29;1532;-78
2021/05/07 09:48:18;;;;;;;;;;;;;;;21.56;30.02;97626.00;4942144;29;1520;-78
2021/05/07 09:50:44;;;;;;;;;;;;;;;21.52;29.77;97627.38;4926597;29;1647;-78
2021/05/07 09:53:10;;;;;;;;;;;;;;;21.60;29.78;97623.03;4945180;29;691;-77
2021/05/07 09:55:35;;;;;;;;;;;;;;;21.69;29.79;97613.88;4944317;29;1501;-78
2021/05/07 09:58:01;;;;;;;;;;;;;;;21.67;29.64;97620.00;4944829;29;1910;-78
2021/05/07 10:00:26;;;;;;;;;;;;;;;21.66;29.57;97612.75;4927989;29;1506;-77
2021/05/07 10:02:52;;;;;;;;;;;;;;;21.49;29.99;97612.06;4907439;29;1605;-78
2021/05/07 10:05:17;;;;;;;;;;;;;;;21.49;30.12;97608.44;4936039;29;1387;-77
2021/05/07 10:07:43;;;;;;;;;;;;;;;21.68;29.56;97607.41;4944168;29;1540;-77
2021/05/07 10:10:08;;;;;;;;;;;;;;;21.65;29.73;97604.69;4943510;29;1531;-77
2021/05/07 10:12:35;;;;;;;;;;;;;;;21.69;29.61;97619.53;4943656;29;1518;-76
2021/05/07 10:15:00;;;;;;;;;;;;;;;21.48;30.01;97604.81;4927539;29;1375;-77
2021/05/07 10:17:27;;;;;;;;;;;;;;;21.72;29.56;97595.97;4927812;29;1974;-77
2021/05/07 10:19:54;;;;;;;;;;;;;;;21.78;29.38;97597.78;4927872;29;1691;-77
2021/05/07 10:22:25;;;;;;;;;;;;;;;21.66;29.73;97595.78;4927401;29;653;-77
2021/05/07 10:24:51;;;;;;;;;;;;;;;21.73;29.77;97589.06;4943003;29;980;-76
2021/05/07 10:27:20;;;;;;;;;;;;;;;21.73;29.82;97601.19;4943682;29;1532;-77
2021/05/07 10:29:56;;;;;;;;;;;;;;;21.58;29.93;97598.03;4944442;29;900;-77
2021/05/07 10:32:31;;;;;;;;;;;;;;;21.70;29.85;97593.59;4944452;29;1499;-77
2021/05/07 10:34:56;;;;;;;;;;;;;;;21.60;29.78;97589.06;4944753;29;663;-76
2021/05/07 10:37:26;;;;;;;;;;;;;;;21.57;30.08;97604.94;4943629;29;1978;-78
2021/05/07 10:39:52;;;;;;;;;;;;;;;21.63;29.78;97593.84;4940559;29;1564;-78
2021/05/07 10:42:18;;;;;;;;;;;;;;;21.62;29.92;97597.91;4926235;29;1595;-78
2021/05/07 10:44:44;;;;;;;;;;;;;;;21.71;30.01;97597.19;4944168;29;1097;-78
2021/05/07 10:47:10;;;;;;;;;;;;;;;21.61;30.03;97590.69;4942970;29;1818;-77
2021/05/07 10:49:35;;;;;;;;;;;;;;;21.54;29.90;97586.03;4943063;29;1711;-76
2021/05/07 10:52:01;;;;;;;;;;;;;;;21.67;30.11;97594.50;4944165;29;681;-78
2021/05/07 10:54:35;;;;;;;;;;;;;;;21.77;29.60;97582.03;4942356;29;1676;-76
2021/05/07 10:57:00;;;;;;;;;;;;;;;21.67;29.82;97566.19;4942936;29;1457;-77
2021/05/07 10:59:26;;;;;;;;;;;;;;;21.65;29.95;97562.22;4926971;29;1984;-77
2021/05/07 11:01:58;;;;;;;;;;;;;;;21.64;30.21;97555.78;4943515;29;1572;-77
2021/05/07 11:04:24;;;;;;;;;;;;;;;21.62;30.16;97558.28;4943889;29;620;-77
2021/05/07 11:06:58;;;;;;;;;;;;;;;21.70;29.69;97559.59;4943749;29;632;-78
2021/05/07 11:09:24;;;;;;;;;;;;;;;21.63;30.06;97553.41;4925979;29;1334;-77
2021/05/07 11:11:50;;;;;;;;;;;;;;;21.63;29.88;97548.53;4925571;29;1493;-78
2021/05/07 11:14:16;;;;;;;;;;;;;;;21.58;30.00;97551.94;4943607;29;817;-77
2021/05/07 11:16:55;;;;;;;;;;;;;;;21.72;29.74;97557.13;4942283;29;1446;-78
2021/05/07 11:19:22;;;;;;;;;;;;;;;21.68;29.86;97555.66;4923890;29;1911;-78
2021/05/07 11:21:51;;;;;;;;;;;;;;;21.70;29.83;97536.94;4926625;29;969;-78
2021/05/07 11:24:17;;;;;;;;;;;;;;;21.70;29.88;97528.47;4942323;29;1536;-77
2021/05/07 11:26:42;;;;;;;;;;;;;;;21.61;29.98;97517.06;4943024;29;1497;-78
2021/05/07 11:29:08;;;;;;;;;;;;;;;21.72;29.74;97540.13;4942695;29;1487;-78
2021/05/07 11:31:34;;;;;;;;;;;;;;;21.56;29.88;97537.47;4942433;29;1545;-77
2021/05/07 11:33:59;;;;;;;;;;;;;;;21.72;29.83;97528.81;4943346;29;671;-77
2021/05/07 11:36:26;;;;;;;;;;;;;;;21.69;29.82;97529.72;4940813;29;1248;-77
2021/05/07 11:38:52;;;;;;;;;;;;;;;21.63;29.77;97525.09;4935080;29;1904;-77
2021/05/07 11:41:18;;;;;;;;;;;;;;;21.56;29.83;97521.25;4940982;29;1529;-76
2021/05/07 11:43:43;;;;;;;;;;;;;;;21.54;29.89;97528.63;4942612;29;1559;-77
2021/05/07 11:46:09;;;;;;;;;;;;;;;21.62;29.99;97518.66;4942778;29;1635;-77
2021/05/07 11:48:35;;;;;;;;;;;;;;;21.72;29.50;97517.47;4942540;29;1912;-77
2021/05/07 11:51:06;;;;;;;;;;;;;;;21.71;29.61;97507.41;4926551;29;1371;-77
2021/05/07 11:53:35;;;;;;;;;;;;;;;21.75;29.47;97521.44;4942701;29;907;-77
2021/05/07 11:56:01;;;;;;;;;;;;;;;21.71;29.62;97504.59;4923972;29;1571;-78
2021/05/07 11:58:30;;;;;;;;;;;;;;;21.65;29.77;97509.22;4942899;29;1920;-77
2021/05/07 12:00:56;;;;;;;;;;;;;;;21.71;29.64;97504.59;4942081;29;1544;-78
2021/05/07 12:03:24;;;;;;;;;;;;;;;21.79;29.32;97505.91;4926657;29;675;-77
2021/05/07 12:05:50;;;;;;;;;;;;;;;21.66;29.72;97496.66;4927053;29;1576;-77
2021/05/07 12:08:24;;;;;;;;;;;;;;;21.63;29.84;97491.91;4937639;29;1510;-78
2021/05/07 12:11:07;;;;;;;;;;;;;;;21.59;29.93;97485.56;4925020;29;1564;-77
2021/05/07 12:13:33;;;;;;;;;;;;;;;21.61;29.80;97487.97;4943090;29;708;-77
2021/05/07 12:15:59;;;;;;;;;;;;;;;21.64;29.57;97479.31;4941673;29;1607;-78
2021/05/07 12:18:25;;;;;;;;;;;;;;;21.67;29.73;97481.25;4940912;29;1910;-78
2021/05/07 12:20:51;;;;;;;;;;;;;;;21.74;29.26;97469.66;4933961;29;1341;-77
2021/05/07 12:23:17;;;;;;;;;;;;;;;21.72;29.62;97477.84;4907360;29;1413;-78
2021/05/07 12:25:58;;;;;;;;;;;;;;;21.66;29.64;97476.84;4926717;29;1566;-77
2021/05/07 12:28:23;;;;;;;;;;;;;;;21.62;29.50;97479.00;4927792;29;923;-78
2021/05/07 12:30:49;;;;;;;;;;;;;;;19.88;29.63;97197.22;4924235;29;1581;-77
2021/05/07 12:33:18;;;;;;;;;;;;;;;21.47;29.98;97477.91;4941758;29;1543;-78
2021/05/07 12:35:48;;;;;;;;;;;;;;;21.75;29.67;97464.78;4923872;29;1608;-78
2021/05/07 12:38:14;;;;;;;;;;;;;;;21.53;30.04;97459.09;4903558;29;1982;-78
2021/05/07 12:40:40;;;;;;;;;;;;;;;21.54;29.96;97449.34;4941026;29;1516;-77
2021/05/07 12:43:05;;;;;;;;;;;;;;;21.62;29.82;97453.53;4924447;29;1525;-78
2021/05/07 12:45:42;;;;;;;;;;;;;;;21.76;29.62;97457.88;4941868;29;1553;-76
2021/05/07 12:48:21;;;;;;;;;;;;;;;21.68;29.48;97453.72;4942774;29;633;-77
2021/05/07 12:50:54;;;;;;;;;;;;;;;21.63;29.73;97429.63;4938226;29;1465;-75
2021/05/07 12:53:23;;;;;;;;;;;;;;;21.59;30.01;97423.28;4938885;29;1437;-78
2021/05/07 12:55:51;;;;;;;;;;;;;;;21.53;29.77;97419.47;4942147;29;828;-77
2021/05/07 12:58:17;;;;;;;;;;;;;;;21.55;29.77;97419.78;4939358;29;1903;-78
2021/05/07 13:00:43;;;;;;;;;;;;;;;21.61;29.60;97429.31;4940135;29;1552;-77